createdAt,value
2023-08-28T00:02:27.140Z,99636.47
2023-08-28T00:06:29.144Z,99638.31
2023-08-28T00:10:30.859Z,99635.19
2023-08-28T00:14:32.970Z,99628.13
2023-08-28T00:18:36.065Z,99609.97
2023-08-28T00:22:38.915Z,99643.50
2023-08-28T00:26:40.751Z,99657.53
2023-08-28T00:30:42.793Z,99644.34
2023-08-28T00:34:47.650Z,99656.25
2023-08-28T00:38:49.880Z,99666.41
2023-08-28T00:42:53.789Z,99666.78
2023-08-28T00:46:56.421Z,99678.38
2023-08-28T00:50:59.160Z,99667.47
2023-08-28T00:55:01.459Z,99688.44
2023-08-28T00:59:04.794Z,99698.56
2023-08-28T01:03:06.892Z,99693.97
2023-08-28T01:07:39.158Z,99695.16
2023-08-28T01:11:49.038Z,99682.53
2023-08-28T01:15:52.164Z,99690.19
2023-08-28T01:19:55.215Z,99717.28
2023-08-28T01:24:00.863Z,99731.91
2023-08-28T01:28:04.423Z,99701.75
2023-08-28T01:32:06.537Z,99712.97
2023-08-28T01:36:34.221Z,99733.31
2023-08-28T01:41:11.345Z,99758.50
2023-08-28T01:45:16.383Z,99764.09
2023-08-28T01:49:18.120Z,99748.13
2023-08-28T01:53:24.371Z,99765.44
2023-08-28T01:57:27.899Z,99772.84
2023-08-28T02:01:30.012Z,99765.56
2023-08-28T02:05:32.164Z,99782.69
2023-08-28T02:09:34.058Z,99794.81
2023-08-28T02:13:36.263Z,99801.63
2023-08-28T02:17:38.495Z,99815.81
2023-08-28T02:21:40.800Z,99806.81
2023-08-28T02:25:44.832Z,99800.69
2023-08-28T02:29:46.567Z,99820.88
2023-08-28T02:33:48.593Z,99829.22
2023-08-28T02:37:51.794Z,99815.19
2023-08-28T02:41:53.545Z,99809.03
2023-08-28T02:45:55.684Z,99815.00
2023-08-28T02:49:57.431Z,99801.41
2023-08-28T02:54:00.407Z,99800.72
2023-08-28T02:58:02.497Z,99802.88
2023-08-28T03:02:04.516Z,99796.88
2023-08-28T03:06:06.480Z,99801.69
2023-08-28T03:10:09.333Z,99815.38
2023-08-28T03:14:12.721Z,99826.03
2023-08-28T03:18:14.889Z,99831.84
2023-08-28T03:22:17.305Z,99845.50
2023-08-28T03:26:19.622Z,99824.34
2023-08-28T03:30:21.677Z,99835.19
2023-08-28T03:34:23.380Z,99853.78
2023-08-28T03:38:25.382Z,99871.63
2023-08-28T03:42:27.500Z,99875.06
2023-08-28T03:46:29.508Z,99882.25
2023-08-28T03:50:31.820Z,99866.44
2023-08-28T03:54:33.847Z,99864.75
2023-08-28T03:58:35.908Z,99876.22
2023-08-28T04:02:38.616Z,99858.25
2023-08-28T04:06:40.444Z,99861.38
2023-08-28T04:10:43.500Z,99880.19
2023-08-28T04:14:45.247Z,99889.19
2023-08-28T04:18:47.588Z,99893.41
2023-08-28T04:22:49.883Z,99910.84
2023-08-28T04:26:52.007Z,99901.56
2023-08-28T04:30:54.321Z,99891.28
2023-08-28T04:34:56.713Z,99863.31
2023-08-28T04:39:00.190Z,99885.91
2023-08-28T04:43:02.414Z,99880.13
2023-08-28T04:47:05.466Z,99895.63
2023-08-28T04:51:08.132Z,99902.09
2023-08-28T04:55:10.179Z,99907.13
2023-08-28T04:59:13.236Z,99915.16
2023-08-28T05:03:15.479Z,99916.84
2023-08-28T05:07:18.781Z,99908.84
2023-08-28T05:11:20.758Z,99880.38
2023-08-28T05:15:23.638Z,99877.84
2023-08-28T05:19:25.751Z,99882.66
2023-08-28T05:23:27.722Z,99900.84
2023-08-28T05:27:29.811Z,99919.34
2023-08-28T05:31:31.936Z,99927.50
2023-08-28T05:35:34.025Z,99932.34
2023-08-28T05:39:36.368Z,99933.69
2023-08-28T05:43:39.212Z,99925.50
2023-08-28T05:47:42.303Z,99915.69
2023-08-28T05:51:44.561Z,99915.84
2023-08-28T05:55:46.647Z,99910.81
2023-08-28T05:59:48.672Z,99917.97
2023-08-28T06:03:57.064Z,99917.00
2023-08-28T06:07:59.277Z,99910.03
2023-08-28T06:12:01.227Z,99901.00
2023-08-28T06:16:03.435Z,99910.97
2023-08-28T06:20:06.094Z,99916.16
2023-08-28T06:24:08.190Z,99923.34
2023-08-28T06:28:10.247Z,99920.66
2023-08-28T06:32:12.622Z,99924.78
2023-08-28T06:36:15.595Z,99936.13
2023-08-28T06:40:17.678Z,99947.13
2023-08-28T06:44:19.743Z,99953.66
2023-08-28T06:48:22.048Z,99953.38
2023-08-28T06:52:24.042Z,99951.88
2023-08-28T06:56:26.128Z,99951.88
2023-08-28T07:00:28.169Z,99978.38
2023-08-28T07:04:30.348Z,99985.06
2023-08-28T07:08:32.419Z,100025.81
2023-08-28T07:12:34.973Z,100042.03
2023-08-28T07:16:37.163Z,100009.75
2023-08-28T07:20:39.357Z,100029.19
2023-08-28T07:24:41.099Z,100010.06
2023-08-28T07:28:43.286Z,100040.81
2023-08-28T07:32:45.419Z,100052.25
2023-08-28T07:36:47.212Z,100021.84
2023-08-28T07:40:51.301Z,100056.41
2023-08-28T07:44:53.918Z,100058.53
2023-08-28T07:48:56.009Z,100068.84
2023-08-28T07:52:58.944Z,100062.06
2023-08-28T07:57:00.651Z,100057.78
2023-08-28T08:01:02.801Z,100065.63
2023-08-28T08:05:05.277Z,100052.78
2023-08-28T08:09:07.305Z,100069.31
2023-08-28T08:13:09.430Z,100044.28
2023-08-28T08:17:11.676Z,100049.53
2023-08-28T08:21:14.651Z,100069.69
2023-08-28T08:25:16.757Z,100062.28
2023-08-28T08:29:18.759Z,100074.75
2023-08-28T08:33:21.971Z,100054.34
2023-08-28T08:37:24.166Z,100060.63
2023-08-28T08:41:26.338Z,100061.66
2023-08-28T08:45:30.195Z,100071.88
2023-08-28T08:49:33.956Z,100059.84
2023-08-28T08:53:50.101Z,100054.72
2023-08-28T08:57:55.159Z,100072.34
2023-08-28T09:02:00.724Z,100067.53
2023-08-28T09:06:06.587Z,100071.97
2023-08-28T09:10:09.136Z,100062.56
2023-08-28T09:14:11.299Z,100076.91
2023-08-28T09:18:13.939Z,100076.66
2023-08-28T09:22:16.117Z,100085.06
2023-08-28T09:26:23.106Z,100090.53
2023-08-28T09:30:27.982Z,100098.56
2023-08-28T09:34:40.774Z,100094.44
2023-08-28T09:38:44.268Z,100107.91
2023-08-28T09:42:46.173Z,100113.00
2023-08-28T09:46:50.290Z,100121.84
2023-08-28T09:50:53.949Z,100110.25
2023-08-28T09:55:06.274Z,100116.69
2023-08-28T09:59:11.299Z,100102.75
2023-08-28T10:03:15.228Z,100104.94
2023-08-28T10:07:22.275Z,100094.41
2023-08-28T10:11:26.703Z,100072.16
2023-08-28T10:15:30.664Z,100092.59
2023-08-28T10:19:39.212Z,100103.69
2023-08-28T10:23:41.706Z,100098.22
2023-08-28T10:27:44.936Z,100098.78
2023-08-28T10:31:47.584Z,100123.91
2023-08-28T10:35:54.263Z,100140.44
2023-08-28T10:40:02.385Z,100162.06
2023-08-28T10:44:06.426Z,100159.84
2023-08-28T10:48:08.656Z,100139.25
2023-08-28T10:52:11.475Z,100130.56
2023-08-28T10:56:13.664Z,100149.06
2023-08-28T11:00:19.137Z,100161.88
2023-08-28T11:04:23.089Z,100177.06
2023-08-28T11:08:25.453Z,100172.03
2023-08-28T11:12:29.165Z,100189.09
2023-08-28T11:16:31.175Z,100177.59
2023-08-28T11:20:37.039Z,100172.69
2023-08-28T11:24:39.442Z,100147.44
2023-08-28T11:28:48.325Z,100098.00
2023-08-28T11:32:53.052Z,100061.47
2023-08-28T11:36:56.888Z,100051.06
2023-08-28T11:41:05.483Z,100028.22
2023-08-28T11:45:08.300Z,100012.06
2023-08-28T11:49:12.146Z,99978.00
2023-08-28T11:53:14.389Z,99958.84
2023-08-28T11:57:20.688Z,99952.50
2023-08-28T12:01:27.617Z,99989.56
2023-08-28T12:05:30.141Z,100011.28
2023-08-28T12:09:34.078Z,100047.44
2023-08-28T12:13:38.025Z,99991.97
2023-08-28T12:17:40.732Z,100019.22
2023-08-28T12:21:43.820Z,100044.66
2023-08-28T12:25:45.705Z,100037.22
2023-08-28T12:29:48.066Z,100011.16
2023-08-28T12:33:50.418Z,100019.84
2023-08-28T12:37:53.126Z,100055.91
2023-08-28T12:41:56.285Z,100044.72
2023-08-28T12:45:58.472Z,100065.38
2023-08-28T12:50:00.705Z,100098.56
2023-08-28T12:54:02.788Z,100115.22
2023-08-28T12:58:05.415Z,100045.88
2023-08-28T13:02:10.352Z,100042.22
2023-08-28T13:06:12.660Z,100021.88
2023-08-28T13:10:15.244Z,100039.72
2023-08-28T13:14:17.386Z,100029.53
2023-08-28T13:18:19.400Z,100030.19
2023-08-28T13:22:21.745Z,100016.34
2023-08-28T13:26:24.070Z,100000.69
2023-08-28T13:30:26.143Z,100015.00
2023-08-28T13:34:28.181Z,100015.63
2023-08-28T13:38:30.328Z,100002.31
2023-08-28T13:42:34.111Z,99999.25
2023-08-28T13:46:37.058Z,99981.03
2023-08-28T13:50:40.708Z,99961.06
2023-08-28T13:54:42.805Z,99949.63
2023-08-28T13:58:47.482Z,99953.22
2023-08-28T14:02:49.501Z,99944.06
2023-08-28T14:06:51.656Z,99953.16
2023-08-28T14:10:54.089Z,99952.19
2023-08-28T14:14:55.865Z,99958.56
2023-08-28T14:18:57.880Z,99944.78
2023-08-28T14:22:59.921Z,99940.16
2023-08-28T14:27:01.966Z,99946.50
2023-08-28T14:31:04.189Z,99944.84
2023-08-28T14:35:07.118Z,99950.53
2023-08-28T14:39:09.170Z,99934.78
2023-08-28T14:43:11.185Z,99939.44
2023-08-28T14:47:13.016Z,99930.34
2023-08-28T14:51:14.996Z,99926.88
2023-08-28T14:55:17.051Z,99932.00
2023-08-28T14:59:18.913Z,99932.69
2023-08-28T15:03:22.072Z,99928.19
2023-08-28T15:07:23.900Z,99936.22
2023-08-28T15:11:26.057Z,99933.88
2023-08-28T15:15:29.514Z,99933.28
2023-08-28T15:19:31.628Z,99944.25
2023-08-28T15:23:33.707Z,99931.84
2023-08-28T15:31:37.808Z,99938.22
2023-08-28T15:35:39.973Z,99921.50
2023-08-28T15:39:42.059Z,99919.41
2023-08-28T15:43:44.075Z,99921.78
2023-08-28T15:47:47.717Z,99939.97
2023-08-28T15:51:49.717Z,99980.25
2023-08-28T15:55:54.156Z,99951.19
2023-08-28T15:59:56.453Z,99945.88
2023-08-28T16:03:58.516Z,99931.03
2023-08-28T16:08:00.876Z,99925.06
2023-08-28T16:12:03.101Z,99914.91
2023-08-28T16:16:05.458Z,99918.59
2023-08-28T16:20:07.565Z,99928.59
2023-08-28T16:24:09.781Z,99923.03
2023-08-28T16:28:12.783Z,99904.50
2023-08-28T16:32:14.822Z,99916.38
2023-08-28T16:36:16.883Z,99921.13
2023-08-28T16:40:19.006Z,99921.84
2023-08-28T16:44:20.982Z,99915.13
2023-08-28T16:48:23.055Z,99912.69
2023-08-28T16:52:25.111Z,99912.75
2023-08-28T16:56:27.257Z,99919.22
2023-08-28T17:00:31.151Z,99912.97
2023-08-28T17:04:33.211Z,99919.91
2023-08-28T17:08:35.243Z,99915.13
2023-08-28T17:12:37.483Z,99908.59
2023-08-28T17:16:39.371Z,99918.28
2023-08-28T17:20:41.566Z,99894.41
2023-08-28T17:24:43.645Z,99888.16
2023-08-28T17:28:45.750Z,99903.25
2023-08-28T17:32:49.069Z,99900.78
2023-08-28T17:36:51.481Z,99894.34
2023-08-28T17:40:53.976Z,99902.53
2023-08-28T17:44:56.055Z,99903.94
2023-08-28T17:48:58.019Z,99914.47
2023-08-28T17:52:59.854Z,99920.06
2023-08-28T17:57:02.434Z,99918.28
2023-08-28T18:01:04.398Z,99926.97
2023-08-28T18:05:07.282Z,99927.63
2023-08-28T18:09:10.010Z,99936.19
2023-08-28T18:13:12.136Z,99931.72
2023-08-28T18:17:17.278Z,99942.91
2023-08-28T18:21:19.517Z,99949.72
2023-08-28T18:25:23.237Z,99949.84
2023-08-28T18:29:25.538Z,99953.69
2023-08-28T18:33:27.332Z,99955.56
2023-08-28T18:37:29.373Z,99951.53
2023-08-28T18:41:31.927Z,99958.91
2023-08-28T18:45:33.944Z,99929.44
2023-08-28T18:49:36.172Z,99932.09
2023-08-28T18:53:38.291Z,99930.97
2023-08-28T18:57:40.065Z,99929.19
2023-08-28T19:01:42.087Z,99922.34
2023-08-28T19:05:47.942Z,99928.69
2023-08-28T19:09:50.250Z,99921.63
2023-08-28T19:13:52.653Z,99921.28
2023-08-28T19:17:56.103Z,99923.78
2023-08-28T19:21:57.869Z,99911.94
2023-08-28T19:26:03.758Z,99918.97
2023-08-28T19:30:12.577Z,99914.09
2023-08-28T19:34:26.455Z,99913.22
2023-08-28T19:38:32.660Z,99913.47
2023-08-28T19:42:38.940Z,99900.41
2023-08-28T19:46:42.403Z,99896.16
2023-08-28T19:50:44.626Z,99890.91
2023-08-28T19:54:47.894Z,99887.38
2023-08-28T19:58:49.981Z,99871.16
2023-08-28T20:02:52.353Z,99875.88
2023-08-28T20:06:54.769Z,99860.50
2023-08-28T20:10:56.725Z,99868.22
2023-08-28T20:14:58.915Z,99867.41
2023-08-28T20:19:00.995Z,99872.28
2023-08-28T20:23:03.096Z,99866.25
2023-08-28T20:27:05.563Z,99853.59
2023-08-28T20:31:07.695Z,99837.06
2023-08-28T20:35:10.033Z,99838.63
2023-08-28T20:39:13.149Z,99838.81
2023-08-28T20:43:15.096Z,99837.28
2023-08-28T20:47:17.175Z,99833.75
2023-08-28T20:51:19.353Z,99828.63
2023-08-28T20:55:21.803Z,99837.81
2023-08-28T20:59:24.009Z,99816.56
2023-08-28T21:03:26.387Z,99805.06
2023-08-28T21:07:28.615Z,99794.03
2023-08-28T21:11:31.682Z,99794.22
2023-08-28T21:15:33.768Z,99797.69
2023-08-28T21:19:35.792Z,99788.06
2023-08-28T21:23:38.062Z,99774.19
2023-08-28T21:27:40.089Z,99774.19
2023-08-28T21:31:42.186Z,99775.81
2023-08-28T21:35:44.184Z,99748.13
2023-08-28T21:39:45.929Z,99752.94
2023-08-28T21:43:48.729Z,99753.63
2023-08-28T21:47:50.780Z,99754.81
2023-08-28T21:52:11.304Z,99743.78
2023-08-28T21:56:36.046Z,99753.69
2023-08-28T22:00:56.526Z,99753.00
2023-08-28T22:05:18.236Z,99755.88
2023-08-28T22:09:20.039Z,99738.97
2023-08-28T22:13:25.058Z,99732.97
2023-08-28T22:17:27.231Z,99729.84
2023-08-28T22:21:29.483Z,99724.97
2023-08-28T22:25:31.477Z,99734.50
2023-08-28T22:29:33.520Z,99744.91
2023-08-28T22:33:35.563Z,99759.41
2023-08-28T22:37:37.745Z,99748.38
2023-08-28T22:41:39.497Z,99746.41
2023-08-28T22:45:41.682Z,99734.50
2023-08-28T22:49:43.737Z,99738.91
2023-08-28T22:53:45.638Z,99749.75
2023-08-28T22:57:48.104Z,99751.94
2023-08-28T23:01:50.207Z,99748.75
2023-08-28T23:05:53.493Z,99762.09
2023-08-28T23:09:55.561Z,99757.94
2023-08-28T23:13:57.628Z,99760.91
2023-08-28T23:17:59.678Z,99761.88
2023-08-28T23:22:01.909Z,99770.94
2023-08-28T23:26:04.093Z,99750.22
2023-08-28T23:30:06.580Z,99753.72
2023-08-28T23:34:08.771Z,99724.88
2023-08-28T23:38:10.843Z,99701.72
2023-08-28T23:42:12.871Z,99704.59
2023-08-28T23:46:14.861Z,99683.22
2023-08-28T23:50:18.197Z,99665.69
2023-08-28T23:54:20.160Z,99650.25
2023-08-28T23:58:22.175Z,99658.16
